Time;durP1;ratioP1;P1;durP2;ratioP2;P2;SDS_P1;SDS_P2;PMS_P1;PMS_P2;Temp;Humidity;BMP_temperature;BMP_pressure;BME280_temperature;BME280_humidity;BME280_pressure;Samples;Min_cycle;Max_cycle;Signal;HPM_P1;HPM_P2
2023/03/08 00:01:23;;;;;;;31.42;16.13;;;;;;;;;;5031996;28;20037;-65
2023/03/08 00:03:53;;;;;;;32.20;15.73;;;;;;;;;;5032735;28;20537;-64
2023/03/08 00:06:18;;;;;;;30.05;14.82;;;;;;;;;;5029363;28;20033;-64
2023/03/08 00:08:44;;;;;;;31.92;16.13;;;;;;;;;;5033197;28;20037;-65
2023/03/08 00:11:11;;;;;;;32.25;16.23;;;;;;;;;;5032645;28;20037;-65
2023/03/08 00:13:37;;;;;;;29.17;15.50;;;;;;;;;;5032321;28;20086;-65
2023/03/08 00:16:05;;;;;;;37.35;16.42;;;;;;;;;;5032455;28;20104;-64
2023/03/08 00:18:31;;;;;;;28.23;14.10;;;;;;;;;;5031730;28;20049;-64
2023/03/08 00:21:16;;;;;;;28.70;15.25;;;;;;;;;;5030573;28;20033;-63
2023/03/08 00:23:42;;;;;;;29.98;15.52;;;;;;;;;;5027376;28;20055;-64
2023/03/08 00:26:09;;;;;;;29.80;15.25;;;;;;;;;;5031780;28;20037;-64
2023/03/08 00:28:35;;;;;;;28.60;15.07;;;;;;;;;;5032384;28;20068;-64
2023/03/08 00:31:02;;;;;;;28.02;14.95;;;;;;;;;;5032153;28;20108;-64
2023/03/08 00:33:28;;;;;;;27.40;15.10;;;;;;;;;;5032624;28;20055;-63
2023/03/08 00:36:04;;;;;;;28.25;15.73;;;;;;;;;;5033149;28;20149;-63
2023/03/08 00:38:31;;;;;;;29.77;15.30;;;;;;;;;;5032825;28;20057;-64
2023/03/08 00:40:57;;;;;;;29.17;15.43;;;;;;;;;;5032843;28;20437;-63
2023/03/08 00:43:22;;;;;;;28.83;15.15;;;;;;;;;;5032495;28;20033;-63
2023/03/08 00:45:48;;;;;;;32.40;16.25;;;;;;;;;;5031790;28;20053;-62
2023/03/08 00:48:13;;;;;;;33.80;16.05;;;;;;;;;;5033048;28;20029;-63
2023/03/08 00:50:39;;;;;;;29.25;14.77;;;;;;;;;;5032953;28;20029;-62
2023/03/08 00:53:04;;;;;;;29.63;15.07;;;;;;;;;;5033106;28;20370;-63
2023/03/08 00:55:30;;;;;;;29.67;15.68;;;;;;;;;;5031867;28;20064;-63
2023/03/08 00:57:55;;;;;;;30.88;14.68;;;;;;;;;;5033164;28;20359;-62
2023/03/08 01:00:21;;;;;;;30.45;15.30;;;;;;;;;;5031691;28;20029;-63
2023/03/08 01:02:46;;;;;;;31.02;15.98;;;;;;;;;;5033246;28;20481;-62
2023/03/08 01:05:12;;;;;;;35.28;16.65;;;;;;;;;;5033232;28;20036;-64
2023/03/08 01:07:38;;;;;;;36.63;16.90;;;;;;;;;;5031555;28;20033;-62
2023/03/08 01:10:04;;;;;;;35.38;16.23;;;;;;;;;;5033297;28;20037;-63
2023/03/08 01:12:32;;;;;;;36.38;16.75;;;;;;;;;;5032197;28;20033;-62
2023/03/08 01:14:57;;;;;;;35.88;17.42;;;;;;;;;;5029602;28;20033;-62
2023/03/08 01:17:23;;;;;;;40.65;17.55;;;;;;;;;;5030940;28;20037;-62
2023/03/08 01:19:48;;;;;;;39.70;16.90;;;;;;;;;;5030147;28;20029;-63
2023/03/08 01:22:13;;;;;;;41.90;17.95;;;;;;;;;;5028960;28;20033;-62
2023/03/08 01:24:44;;;;;;;44.67;18.55;;;;;;;;;;5021776;28;20180;-63
2023/03/08 01:27:09;;;;;;;45.63;18.07;;;;;;;;;;5031001;28;20127;-62
2023/03/08 01:29:34;;;;;;;43.17;19.90;;;;;;;;;;5031807;28;20088;-63
2023/03/08 01:32:00;;;;;;;45.42;19.58;;;;;;;;;;5021634;28;20018;-61
2023/03/08 01:34:25;;;;;;;42.75;19.38;;;;;;;;;;5031545;28;20486;-62
2023/03/08 01:36:50;;;;;;;43.67;18.98;;;;;;;;;;5044794;28;20029;-62
2023/03/08 01:39:16;;;;;;;49.38;20.10;;;;;;;;;;5034500;28;20033;-62
2023/03/08 01:41:41;;;;;;;46.25;20.20;;;;;;;;;;5031641;28;20049;-61
2023/03/08 01:44:14;;;;;;;38.85;18.77;;;;;;;;;;5030819;28;20394;-62
2023/03/08 01:46:40;;;;;;;48.55;21.20;;;;;;;;;;5030849;28;20038;-62
2023/03/08 01:49:37;;;;;;;46.33;19.50;;;;;;;;;;5030272;28;20037;-62
2023/03/08 01:52:07;;;;;;;45.13;18.50;;;;;;;;;;4996930;28;20096;-61
2023/03/08 01:54:42;;;;;;;43.83;19.50;;;;;;;;;;5025292;28;20029;-62
2023/03/08 01:57:13;;;;;;;44.83;16.75;;;;;;;;;;5030860;28;20037;-62
2023/03/08 01:59:38;;;;;;;30.42;12.57;;;;;;;;;;5030531;28;20044;-63
2023/03/08 02:02:05;;;;;;;45.60;20.52;;;;;;;;;;5031230;28;20124;-62
2023/03/08 02:04:31;;;;;;;45.42;18.67;;;;;;;;;;5030491;28;20033;-63
2023/03/08 02:06:56;;;;;;;45.97;18.83;;;;;;;;;;5030844;28;20036;-63
2023/03/08 02:09:23;;;;;;;44.92;19.58;;;;;;;;;;5025423;28;20030;-63
2023/03/08 02:11:48;;;;;;;47.83;19.42;;;;;;;;;;5025408;28;20029;-63
2023/03/08 02:14:14;;;;;;;45.50;18.55;;;;;;;;;;5031325;28;20040;-62
2023/03/08 02:16:39;;;;;;;47.25;18.75;;;;;;;;;;5031008;28;20104;-63
2023/03/08 02:19:13;;;;;;;51.13;19.60;;;;;;;;;;5031603;28;20037;-63
2023/03/08 02:21:39;;;;;;;48.75;20.05;;;;;;;;;;5030736;28;20041;-63
2023/03/08 02:24:15;;;;;;;43.75;18.92;;;;;;;;;;5009468;28;20057;-62
2023/03/08 02:26:41;;;;;;;44.03;19.33;;;;;;;;;;5022910;28;20125;-62
2023/03/08 02:29:07;;;;;;;46.35;19.25;;;;;;;;;;5029187;28;20104;-64
2023/03/08 02:31:33;;;;;;;49.15;20.70;;;;;;;;;;5027971;28;20029;-62
2023/03/08 02:33:58;;;;;;;55.17;20.40;;;;;;;;;;5029586;28;20037;-62
2023/03/08 02:36:23;;;;;;;49.42;20.27;;;;;;;;;;5030720;28;20025;-62
2023/03/08 02:38:49;;;;;;;49.33;21.00;;;;;;;;;;5028653;28;20442;-62
2023/03/08 02:41:14;;;;;;;48.42;19.80;;;;;;;;;;5028205;28;20500;-62
2023/03/08 02:43:40;;;;;;;45.33;20.75;;;;;;;;;;5029980;28;20063;-62
2023/03/08 02:46:05;;;;;;;43.95;19.88;;;;;;;;;;5030034;28;20036;-62
2023/03/08 02:48:30;;;;;;;47.33;20.05;;;;;;;;;;5029108;28;20035;-64
2023/03/08 02:50:56;;;;;;;47.20;20.33;;;;;;;;;;5027104;28;20052;-63
2023/03/08 02:53:21;;;;;;;45.13;20.27;;;;;;;;;;5026787;28;20032;-62
2023/03/08 02:55:47;;;;;;;48.15;20.98;;;;;;;;;;5027014;28;20033;-62
2023/03/08 02:58:12;;;;;;;49.53;20.08;;;;;;;;;;5027676;28;20377;-61
2023/03/08 03:00:38;;;;;;;47.47;20.23;;;;;;;;;;5028148;28;21266;-62
2023/03/08 03:03:03;;;;;;;40.88;19.25;;;;;;;;;;5029418;28;20389;-62
2023/03/08 03:05:29;;;;;;;42.92;18.27;;;;;;;;;;5030022;28;20051;-63
2023/03/08 03:07:57;;;;;;;40.63;18.30;;;;;;;;;;5027095;28;20116;-62
2023/03/08 03:10:22;;;;;;;41.75;18.73;;;;;;;;;;5006120;28;20381;-62
2023/03/08 03:12:48;;;;;;;40.15;18.17;;;;;;;;;;5025818;28;20030;-62
2023/03/08 03:15:13;;;;;;;40.70;18.23;;;;;;;;;;5030581;28;20056;-62
2023/03/08 03:17:38;;;;;;;45.00;18.23;;;;;;;;;;5029206;28;20034;-63
2023/03/08 03:20:07;;;;;;;41.55;19.33;;;;;;;;;;5031763;28;20063;-63
2023/03/08 03:22:33;;;;;;;43.90;18.95;;;;;;;;;;5030042;28;20046;-62
2023/03/08 03:24:58;;;;;;;40.22;17.88;;;;;;;;;;5034854;28;20079;-63
2023/03/08 03:27:23;;;;;;;44.45;18.20;;;;;;;;;;5031744;28;20029;-63
2023/03/08 03:29:49;;;;;;;41.63;17.83;;;;;;;;;;5015001;28;20187;-62
2023/03/08 03:32:14;;;;;;;41.83;17.77;;;;;;;;;;5032148;28;20163;-62
2023/03/08 03:34:40;;;;;;;43.50;18.83;;;;;;;;;;5032323;28;20030;-62
2023/03/08 03:37:05;;;;;;;43.42;17.98;;;;;;;;;;5029261;28;20037;-61
2023/03/08 03:39:35;;;;;;;47.25;18.02;;;;;;;;;;5033426;28;20038;-62
2023/03/08 03:42:00;;;;;;;43.08;18.35;;;;;;;;;;5032721;28;20523;-62
2023/03/08 03:44:29;;;;;;;41.22;18.25;;;;;;;;;;5033423;28;20128;-62
2023/03/08 03:46:54;;;;;;;41.28;18.63;;;;;;;;;;5033071;28;20048;-62
2023/03/08 03:49:19;;;;;;;37.72;18.20;;;;;;;;;;5032285;28;20041;-62
2023/03/08 03:51:45;;;;;;;40.50;18.40;;;;;;;;;;5014692;28;20101;-62
2023/03/08 03:54:10;;;;;;;39.47;16.80;;;;;;;;;;5029623;28;20417;-62
2023/03/08 03:56:35;;;;;;;40.65;17.55;;;;;;;;;;5033155;28;20116;-61
2023/03/08 03:59:01;;;;;;;40.88;18.73;;;;;;;;;;5013292;28;20034;-62
2023/03/08 04:01:28;;;;;;;40.50;18.42;;;;;;;;;;5034523;28;20036;-63
2023/03/08 04:03:55;;;;;;;34.00;17.05;;;;;;;;;;5027459;28;20033;-65
2023/03/08 04:06:21;;;;;;;37.13;16.63;;;;;;;;;;5032263;28;20466;-61
2023/03/08 04:08:47;;;;;;;38.38;17.77;;;;;;;;;;5014473;28;20087;-62
2023/03/08 04:11:18;;;;;;;36.67;17.00;;;;;;;;;;5034924;28;20033;-63
2023/03/08 04:13:44;;;;;;;37.13;17.98;;;;;;;;;;5029532;28;20489;-61
2023/03/08 04:16:19;;;;;;;38.17;18.25;;;;;;;;;;5032446;28;20065;-61
2023/03/08 04:18:44;;;;;;;37.22;17.23;;;;;;;;;;5030341;28;20128;-61
2023/03/08 04:21:11;;;;;;;36.83;17.45;;;;;;;;;;5033956;28;20124;-61
2023/03/08 04:23:36;;;;;;;35.50;16.95;;;;;;;;;;5030163;28;20087;-61
2023/03/08 04:26:03;;;;;;;35.45;16.95;;;;;;;;;;5032778;28;20033;-61
2023/03/08 04:28:29;;;;;;;38.58;17.15;;;;;;;;;;5031269;28;20531;-61
2023/03/08 04:30:54;;;;;;;35.50;16.65;;;;;;;;;;5033341;28;20033;-61
2023/03/08 04:33:20;;;;;;;32.28;15.95;;;;;;;;;;5028811;28;20079;-63
2023/03/08 04:35:45;;;;;;;34.30;16.55;;;;;;;;;;5028644;28;20040;-62
2023/03/08 04:38:11;;;;;;;36.17;17.05;;;;;;;;;;5030589;28;20029;-62
2023/03/08 04:41:00;;;;;;;32.40;15.35;;;;;;;;;;5031330;28;20044;-69
2023/03/08 04:43:23;;;;;;;34.60;15.88;;;;;;;;;;5023430;28;20052;-66
2023/03/08 04:45:48;;;;;;;32.83;15.57;;;;;;;;;;5014733;28;20045;-66
2023/03/08 04:48:13;;;;;;;34.33;16.52;;;;;;;;;;5007357;28;20043;-67
2023/03/08 04:50:39;;;;;;;36.58;16.38;;;;;;;;;;5033105;28;20445;-66
2023/03/08 04:53:05;;;;;;;34.08;16.63;;;;;;;;;;5033158;28;20441;-66
2023/03/08 04:55:30;;;;;;;36.88;16.45;;;;;;;;;;5033768;28;20029;-67
2023/03/08 04:57:56;;;;;;;33.33;16.08;;;;;;;;;;5032743;28;20060;-67
2023/03/08 05:00:21;;;;;;;32.38;15.55;;;;;;;;;;5030740;28;20473;-67
2023/03/08 05:02:47;;;;;;;32.38;15.85;;;;;;;;;;5030556;28;20037;-66
2023/03/08 05:05:12;;;;;;;33.55;16.30;;;;;;;;;;5030991;28;20075;-67
2023/03/08 05:07:37;;;;;;;42.50;18.40;;;;;;;;;;5033381;28;20038;-67
2023/03/08 05:10:03;;;;;;;39.10;17.63;;;;;;;;;;5033403;28;20036;-67
2023/03/08 05:12:29;;;;;;;40.67;18.02;;;;;;;;;;5033476;28;20056;-67
2023/03/08 05:14:54;;;;;;;39.42;18.20;;;;;;;;;;5032426;28;20084;-67
2023/03/08 05:17:20;;;;;;;35.42;18.15;;;;;;;;;;5033513;28;20125;-67
2023/03/08 05:19:46;;;;;;;41.30;17.08;;;;;;;;;;5032648;28;20053;-67
2023/03/08 05:22:11;;;;;;;38.35;18.27;;;;;;;;;;5033702;28;20076;-66
2023/03/08 05:24:39;;;;;;;37.17;17.45;;;;;;;;;;5032302;28;20025;-66
2023/03/08 05:27:05;;;;;;;36.05;16.70;;;;;;;;;;5033118;28;20151;-67
2023/03/08 05:29:31;;;;;;;35.42;15.90;;;;;;;;;;5031364;28;20113;-67
2023/03/08 05:31:57;;;;;;;36.17;17.48;;;;;;;;;;5032313;28;20136;-66
2023/03/08 05:34:23;;;;;;;39.45;16.58;;;;;;;;;;5033059;28;20032;-65
2023/03/08 05:36:48;;;;;;;31.88;15.18;;;;;;;;;;5032266;28;20034;-68
2023/03/08 05:39:13;;;;;;;34.10;15.93;;;;;;;;;;5032744;28;20041;-66
2023/03/08 05:41:39;;;;;;;36.83;16.48;;;;;;;;;;5032282;28;20029;-67
2023/03/08 05:44:04;;;;;;;34.10;15.35;;;;;;;;;;5029337;28;20393;-67
2023/03/08 05:46:30;;;;;;;32.70;15.52;;;;;;;;;;5015375;28;20037;-67
2023/03/08 05:48:56;;;;;;;34.55;15.48;;;;;;;;;;5031601;28;20033;-67
2023/03/08 05:51:21;;;;;;;35.15;16.13;;;;;;;;;;5033046;28;20043;-67
2023/03/08 05:53:47;;;;;;;32.60;15.30;;;;;;;;;;5029830;28;20041;-66
2023/03/08 05:56:17;;;;;;;34.13;16.13;;;;;;;;;;5033169;28;20030;-66
2023/03/08 05:58:43;;;;;;;29.52;14.32;;;;;;;;;;5031886;28;20474;-66
2023/03/08 06:01:15;;;;;;;30.65;14.75;;;;;;;;;;5032695;28;20033;-67
2023/03/08 06:03:42;;;;;;;34.55;14.68;;;;;;;;;;5032033;28;20029;-66
2023/03/08 06:06:08;;;;;;;33.88;14.68;;;;;;;;;;5032933;28;20033;-67
2023/03/08 06:08:33;;;;;;;35.13;14.77;;;;;;;;;;5032626;28;20030;-67
2023/03/08 06:10:59;;;;;;;29.23;14.30;;;;;;;;;;5032602;28;20428;-67
2023/03/08 06:13:24;;;;;;;37.33;15.52;;;;;;;;;;5033365;28;20524;-67
2023/03/08 06:15:57;;;;;;;31.95;14.98;;;;;;;;;;5014666;28;20113;-67
2023/03/08 06:18:24;;;;;;;31.73;14.18;;;;;;;;;;5015265;28;20323;-66
2023/03/08 06:21:01;;;;;;;33.65;14.90;;;;;;;;;;5032175;28;20450;-68
2023/03/08 06:23:28;;;;;;;30.33;13.70;;;;;;;;;;5013310;28;20036;-67
2023/03/08 06:25:55;;;;;;;27.92;12.73;;;;;;;;;;5030794;28;20037;-66
2023/03/08 06:28:21;;;;;;;27.92;12.75;;;;;;;;;;5032340;28;20476;-67
2023/03/08 06:30:50;;;;;;;33.42;12.52;;;;;;;;;;5031181;28;20029;-67
2023/03/08 06:33:21;;;;;;;25.02;11.10;;;;;;;;;;5032027;28;20026;-67
2023/03/08 06:36:08;;;;;;;27.33;12.60;;;;;;;;;;5031416;28;20025;-67
2023/03/08 06:38:35;;;;;;;26.02;11.00;;;;;;;;;;5032244;28;20041;-67
2023/03/08 06:41:02;;;;;;;25.92;11.32;;;;;;;;;;5030818;28;20041;-65
2023/03/08 06:43:27;;;;;;;23.92;10.60;;;;;;;;;;5032198;28;20034;-67
2023/03/08 06:45:53;;;;;;;19.27;9.43;;;;;;;;;;5030991;28;20355;-66
2023/03/08 06:48:19;;;;;;;22.13;10.07;;;;;;;;;;5014524;28;20037;-67
2023/03/08 06:50:45;;;;;;;23.88;11.05;;;;;;;;;;5031547;28;20037;-66
2023/03/08 06:53:10;;;;;;;28.85;10.88;;;;;;;;;;5031283;28;20029;-66
2023/03/08 06:55:37;;;;;;;22.13;9.98;;;;;;;;;;5031920;28;20069;-66
2023/03/08 06:58:03;;;;;;;21.58;9.93;;;;;;;;;;5030929;28;20103;-66
2023/03/08 07:00:28;;;;;;;16.92;8.25;;;;;;;;;;5031778;28;20438;-66
2023/03/08 07:02:54;;;;;;;18.40;7.65;;;;;;;;;;5030713;28;20037;-67
2023/03/08 07:05:20;;;;;;;16.00;7.70;;;;;;;;;;5031813;28;20079;-66
2023/03/08 07:07:46;;;;;;;16.25;7.45;;;;;;;;;;5030217;28;20041;-66
2023/03/08 07:10:16;;;;;;;14.07;7.03;;;;;;;;;;5031602;28;20048;-66
2023/03/08 07:12:45;;;;;;;16.27;7.07;;;;;;;;;;5031181;28;20029;-65
2023/03/08 07:15:13;;;;;;;13.93;6.50;;;;;;;;;;5014162;28;20509;-66
2023/03/08 07:17:42;;;;;;;17.20;7.57;;;;;;;;;;5031473;28;20087;-66
2023/03/08 07:20:09;;;;;;;13.27;5.93;;;;;;;;;;5031414;28;20021;-65
2023/03/08 07:22:34;;;;;;;15.55;6.40;;;;;;;;;;5029941;28;20041;-65
2023/03/08 07:25:00;;;;;;;12.98;5.63;;;;;;;;;;5030558;28;20036;-64
2023/03/08 07:27:25;;;;;;;17.02;6.22;;;;;;;;;;5031666;28;20416;-64
2023/03/08 07:29:51;;;;;;;10.18;4.68;;;;;;;;;;5030642;28;20061;-65
2023/03/08 07:32:16;;;;;;;13.23;5.32;;;;;;;;;;5031557;28;20022;-65
2023/03/08 07:34:42;;;;;;;10.93;5.30;;;;;;;;;;5030879;28;20108;-63
2023/03/08 07:37:25;;;;;;;12.73;5.68;;;;;;;;;;5029125;28;20473;-63
2023/03/08 07:39:51;;;;;;;14.07;5.63;;;;;;;;;;5029017;28;20128;-63
2023/03/08 07:42:16;;;;;;;15.80;6.22;;;;;;;;;;5031459;28;20112;-63
2023/03/08 07:44:42;;;;;;;15.02;6.18;;;;;;;;;;5031162;28;20045;-64
2023/03/08 07:47:08;;;;;;;13.70;5.97;;;;;;;;;;5030809;28;20039;-64
2023/03/08 07:49:34;;;;;;;14.02;6.25;;;;;;;;;;5031055;28;20030;-64
2023/03/08 07:51:59;;;;;;;13.18;6.32;;;;;;;;;;5029298;28;20034;-67
2023/03/08 07:54:25;;;;;;;13.55;6.47;;;;;;;;;;5031337;28;20366;-70
2023/03/08 07:56:51;;;;;;;15.98;5.97;;;;;;;;;;5030293;28;20033;-71
2023/03/08 07:59:17;;;;;;;12.93;5.25;;;;;;;;;;5031243;28;20069;-70
2023/03/08 08:01:42;;;;;;;13.60;5.63;;;;;;;;;;5030661;28;20040;-67
2023/03/08 08:04:08;;;;;;;15.55;5.75;;;;;;;;;;5013144;28;20040;-70
2023/03/08 08:06:37;;;;;;;13.70;5.90;;;;;;;;;;5031239;28;20026;-70
2023/03/08 08:09:03;;;;;;;13.82;4.75;;;;;;;;;;5013548;28;20037;-70
2023/03/08 08:11:29;;;;;;;9.07;4.60;;;;;;;;;;5015017;28;20037;-70
2023/03/08 08:13:54;;;;;;;10.35;4.68;;;;;;;;;;5014218;28;20041;-69
2023/03/08 08:16:19;;;;;;;10.75;4.72;;;;;;;;;;5015359;28;20383;-67
2023/03/08 08:18:45;;;;;;;11.93;4.30;;;;;;;;;;5014289;28;20041;-66
2023/03/08 08:21:13;;;;;;;12.45;4.65;;;;;;;;;;5014906;28;20040;-65
2023/03/08 08:23:40;;;;;;;12.45;4.53;;;;;;;;;;5032743;28;20474;-64
2023/03/08 08:26:08;;;;;;;13.18;5.35;;;;;;;;;;5033882;28;20029;-64
2023/03/08 08:28:35;;;;;;;9.02;4.47;;;;;;;;;;5034121;28;20061;-64
2023/03/08 08:31:03;;;;;;;9.57;4.70;;;;;;;;;;5033487;28;20488;-64
2023/03/08 08:33:30;;;;;;;12.50;4.95;;;;;;;;;;5016581;28;20026;-63
2023/03/08 08:35:55;;;;;;;17.80;5.63;;;;;;;;;;5033761;28;20041;-64
2023/03/08 08:38:21;;;;;;;13.35;5.60;;;;;;;;;;5030449;28;20030;-64
2023/03/08 08:40:47;;;;;;;15.07;5.03;;;;;;;;;;5033556;28;20029;-64
2023/03/08 08:43:13;;;;;;;11.00;4.88;;;;;;;;;;5016250;28;20464;-66
2023/03/08 08:45:46;;;;;;;10.48;4.53;;;;;;;;;;5033508;28;20098;-63
2023/03/08 08:48:13;;;;;;;10.80;5.22;;;;;;;;;;5034091;28;20033;-62
2023/03/08 08:50:39;;;;;;;10.88;4.60;;;;;;;;;;5033951;28;20037;-62
2023/03/08 08:53:05;;;;;;;8.10;4.28;;;;;;;;;;5015413;28;20226;-63
2023/03/08 08:55:30;;;;;;;7.93;4.05;;;;;;;;;;5034700;28;20419;-63
2023/03/08 08:57:56;;;;;;;10.50;4.40;;;;;;;;;;5034518;28;20033;-61
2023/03/08 09:00:21;;;;;;;10.98;4.47;;;;;;;;;;5034380;28;20363;-61
2023/03/08 09:02:47;;;;;;;10.23;4.28;;;;;;;;;;5016041;28;20038;-62
2023/03/08 09:05:12;;;;;;;7.63;4.28;;;;;;;;;;5016064;28;20377;-61
2023/03/08 09:07:38;;;;;;;12.82;4.50;;;;;;;;;;5033755;28;20029;-62
2023/03/08 09:10:04;;;;;;;9.20;4.03;;;;;;;;;;5033034;28;20108;-61
2023/03/08 09:12:29;;;;;;;9.07;4.15;;;;;;;;;;5016007;28;20455;-61
2023/03/08 09:14:55;;;;;;;8.88;4.00;;;;;;;;;;5031561;28;20037;-61
2023/03/08 09:17:20;;;;;;;7.47;4.10;;;;;;;;;;5033392;28;20452;-61
2023/03/08 09:19:46;;;;;;;9.32;4.25;;;;;;;;;;5032112;28;20416;-62
2023/03/08 09:22:12;;;;;;;10.23;4.20;;;;;;;;;;5031287;28;20104;-62
2023/03/08 09:24:37;;;;;;;8.73;4.35;;;;;;;;;;5033713;28;20416;-62
2023/03/08 09:27:06;;;;;;;8.05;4.47;;;;;;;;;;5014542;28;20397;-62
2023/03/08 09:29:32;;;;;;;8.90;4.57;;;;;;;;;;5033501;28;20040;-61
2023/03/08 09:31:58;;;;;;;8.57;4.72;;;;;;;;;;5032330;28;20083;-61
2023/03/08 09:34:24;;;;;;;9.30;4.97;;;;;;;;;;5033024;28;20348;-61
2023/03/08 09:36:50;;;;;;;10.32;4.93;;;;;;;;;;5032321;28;20033;-62
2023/03/08 09:39:15;;;;;;;13.10;5.55;;;;;;;;;;5032760;28;20025;-62
2023/03/08 09:41:43;;;;;;;11.23;5.93;;;;;;;;;;5031574;28;20139;-62
2023/03/08 09:44:34;;;;;;;14.18;6.40;;;;;;;;;;5032219;28;20061;-62
2023/03/08 09:47:21;;;;;;;13.03;6.57;;;;;;;;;;5017271;28;20044;-61
2023/03/08 09:49:50;;;;;;;16.48;7.15;;;;;;;;;;5032882;28;20258;-63
2023/03/08 09:52:26;;;;;;;13.68;6.68;;;;;;;;;;5032868;28;20049;-61
2023/03/08 09:54:52;;;;;;;14.77;7.25;;;;;;;;;;5031683;28;20033;-61
2023/03/08 09:57:25;;;;;;;14.48;7.00;;;;;;;;;;5032910;28;20109;-61
2023/03/08 09:59:53;;;;;;;15.43;6.78;;;;;;;;;;5012093;28;20760;-61
2023/03/08 10:02:37;;;;;;;13.82;6.30;;;;;;;;;;5032055;28;20037;-61
2023/03/08 10:05:23;;;;;;;13.63;6.20;;;;;;;;;;5031757;28;20033;-61
2023/03/08 10:08:08;;;;;;;18.38;6.22;;;;;;;;;;5032765;28;20121;-60
2023/03/08 10:11:00;;;;;;;15.80;7.00;;;;;;;;;;5032828;28;20029;-60
2023/03/08 10:13:46;;;;;;;14.82;7.55;;;;;;;;;;5032462;28;20461;-60
2023/03/08 10:16:20;;;;;;;14.07;7.20;;;;;;;;;;5031376;28;20039;-61
2023/03/08 10:19:13;;;;;;;10.27;5.22;;;;;;;;;;5032496;28;20032;-60
2023/03/08 10:21:40;;;;;;;9.88;5.78;;;;;;;;;;5030959;28;20033;-60
2023/03/08 10:24:25;;;;;;;10.10;5.07;;;;;;;;;;5013859;28;20061;-61
2023/03/08 10:26:52;;;;;;;9.73;5.38;;;;;;;;;;5031868;28;20078;-61
2023/03/08 10:29:17;;;;;;;9.05;5.10;;;;;;;;;;5032178;28;20551;-61
2023/03/08 10:31:43;;;;;;;9.32;4.85;;;;;;;;;;5032090;28;20037;-61
2023/03/08 10:34:18;;;;;;;9.52;4.68;;;;;;;;;;5031158;28;20112;-60
2023/03/08 10:37:01;;;;;;;6.82;4.15;;;;;;;;;;5031668;28;20037;-60
2023/03/08 10:39:27;;;;;;;7.45;3.95;;;;;;;;;;5032212;28;20025;-60
2023/03/08 10:42:00;;;;;;;7.90;4.40;;;;;;;;;;5031616;28;20041;-60
2023/03/08 10:44:41;;;;;;;7.30;4.43;;;;;;;;;;5031836;28;20060;-61
2023/03/08 10:47:33;;;;;;;8.23;4.05;;;;;;;;;;5031333;28;20033;-61
2023/03/08 10:50:19;;;;;;;7.07;4.13;;;;;;;;;;5031259;28;20043;-62
2023/03/08 10:52:46;;;;;;;7.72;4.47;;;;;;;;;;5030768;28;20124;-63
2023/03/08 10:55:28;;;;;;;6.35;3.83;;;;;;;;;;5014118;28;20030;-63
2023/03/08 10:57:59;;;;;;;6.90;3.92;;;;;;;;;;5032101;28;20051;-61
2023/03/08 11:00:28;;;;;;;8.00;4.13;;;;;;;;;;5032460;28;20042;-61
2023/03/08 11:03:17;;;;;;;6.72;3.85;;;;;;;;;;5031782;28;20120;-61
2023/03/08 11:05:56;;;;;;;7.30;3.88;;;;;;;;;;5031085;28;20037;-61
2023/03/08 11:08:26;;;;;;;6.25;3.67;;;;;;;;;;5031683;28;20032;-62
2023/03/08 11:11:06;;;;;;;6.22;3.80;;;;;;;;;;5014358;28;20113;-62
2023/03/08 11:13:51;;;;;;;6.63;3.53;;;;;;;;;;5031083;28;20076;-62
2023/03/08 11:16:38;;;;;;;6.40;3.58;;;;;;;;;;5030047;28;20033;-61
2023/03/08 11:19:21;;;;;;;6.07;3.63;;;;;;;;;;5031013;28;20033;-62
2023/03/08 11:21:49;;;;;;;6.30;3.70;;;;;;;;;;5029869;28;20390;-62
2023/03/08 11:24:49;;;;;;;6.63;4.10;;;;;;;;;;5030666;28;20114;-61
2023/03/08 11:27:35;;;;;;;7.57;4.47;;;;;;;;;;5030887;28;20120;-62
2023/03/08 11:30:36;;;;;;;6.85;4.22;;;;;;;;;;5013143;28;20034;-62
2023/03/08 11:33:43;;;;;;;5.65;3.50;;;;;;;;;;5030813;28;20087;-62
2023/03/08 11:36:17;;;;;;;7.78;4.25;;;;;;;;;;4934053;29;20039;-62
2023/03/08 11:38:50;;;;;;;6.53;4.10;;;;;;;;;;4951612;29;20122;-61
2023/03/08 11:41:36;;;;;;;7.65;4.70;;;;;;;;;;4950773;29;20055;-61
2023/03/08 11:44:16;;;;;;;9.55;4.72;;;;;;;;;;4952985;29;20055;-62
2023/03/08 11:47:00;;;;;;;7.30;4.53;;;;;;;;;;4954415;29;20484;-62
2023/03/08 11:50:06;;;;;;;7.90;5.18;;;;;;;;;;4954783;29;20055;-63
2023/03/08 11:53:22;;;;;;;8.40;4.60;;;;;;;;;;4954495;29;20129;-62
2023/03/08 11:56:07;;;;;;;7.70;4.30;;;;;;;;;;4954537;29;20046;-62
2023/03/08 11:58:41;;;;;;;6.72;3.67;;;;;;;;;;4954538;29;20105;-63
2023/03/08 12:01:21;;;;;;;6.78;3.92;;;;;;;;;;4951735;28;20047;-62
2023/03/08 12:03:52;;;;;;;4.93;3.40;;;;;;;;;;4954509;29;20048;-62
2023/03/08 12:06:33;;;;;;;6.60;3.53;;;;;;;;;;4968507;28;20121;-62
2023/03/08 12:09:07;;;;;;;6.00;3.40;;;;;;;;;;5014354;28;20038;-62
2023/03/08 12:11:41;;;;;;;5.22;3.35;;;;;;;;;;5014610;28;20065;-62
2023/03/08 12:14:26;;;;;;;5.93;3.50;;;;;;;;;;5017217;28;20441;-62
2023/03/08 12:17:18;;;;;;;6.25;3.60;;;;;;;;;;5034424;28;20424;-63
2023/03/08 12:19:49;;;;;;;6.18;3.45;;;;;;;;;;5034683;28;20026;-63
2023/03/08 12:22:25;;;;;;;;;;;;;;;;;;5032931;28;20116;-62
2023/03/08 12:25:08;;;;;;;6.03;3.30;;;;;;;;;;5034865;28;20058;-63
2023/03/08 12:27:44;;;;;;;5.10;3.10;;;;;;;;;;5034558;28;20052;-63
2023/03/08 12:30:31;;;;;;;4.85;3.20;;;;;;;;;;5033421;28;20025;-64
2023/03/08 12:32:58;;;;;;;5.40;3.13;;;;;;;;;;5034072;28;20087;-67
2023/03/08 12:35:31;;;;;;;4.80;3.05;;;;;;;;;;5032887;28;20029;-67
2023/03/08 12:38:04;;;;;;;5.47;3.03;;;;;;;;;;5034215;28;20080;-66
2023/03/08 12:40:41;;;;;;;4.90;3.13;;;;;;;;;;5034236;28;20080;-66
2023/03/08 12:43:12;;;;;;;4.57;2.88;;;;;;;;;;5033528;28;20111;-64
2023/03/08 12:45:42;;;;;;;6.43;3.03;;;;;;;;;;5034507;28;20053;-65
2023/03/08 12:48:25;;;;;;;4.90;3.20;;;;;;;;;;5033535;28;20466;-63
2023/03/08 12:50:56;;;;;;;5.68;3.30;;;;;;;;;;5032667;28;20033;-64
2023/03/08 12:53:43;;;;;;;5.15;3.40;;;;;;;;;;5032931;28;20030;-63
2023/03/08 12:56:08;;;;;;;6.50;3.40;;;;;;;;;;5033134;28;20044;-62
2023/03/08 12:58:46;;;;;;;5.97;3.50;;;;;;;;;;5016053;28;20033;-62
2023/03/08 13:01:41;;;;;;;6.15;3.22;;;;;;;;;;5031136;28;20033;-63
2023/03/08 13:04:26;;;;;;;5.00;2.97;;;;;;;;;;5032782;28;20040;-65
2023/03/08 13:06:52;;;;;;;5.80;3.05;;;;;;;;;;5034063;28;20040;-63
2023/03/08 13:09:31;;;;;;;7.18;3.22;;;;;;;;;;5033234;28;20420;-63
2023/03/08 13:12:15;;;;;;;6.07;3.45;;;;;;;;;;5016189;28;20067;-63
2023/03/08 13:15:09;;;;;;;5.00;3.40;;;;;;;;;;5015150;28;20037;-63
2023/03/08 13:17:38;;;;;;;5.13;3.10;;;;;;;;;;5033753;28;20044;-64
2023/03/08 13:20:10;;;;;;;5.43;3.13;;;;;;;;;;5032881;28;20082;-64
2023/03/08 13:22:35;;;;;;;5.70;3.60;;;;;;;;;;5031296;28;20033;-64
2023/03/08 13:25:08;;;;;;;6.55;3.70;;;;;;;;;;5033396;28;20029;-64
2023/03/08 13:27:34;;;;;;;9.98;3.80;;;;;;;;;;5033420;28;20029;-65
2023/03/08 13:30:15;;;;;;;6.18;3.83;;;;;;;;;;5033301;28;20433;-65
2023/03/08 13:32:41;;;;;;;6.40;3.88;;;;;;;;;;5033274;28;20025;-66
2023/03/08 13:35:14;;;;;;;6.10;3.67;;;;;;;;;;5030878;28;20103;-67
2023/03/08 13:37:39;;;;;;;6.00;3.80;;;;;;;;;;5033071;28;20029;-68
2023/03/08 13:40:15;;;;;;;5.95;3.80;;;;;;;;;;5032490;28;20116;-67
2023/03/08 13:42:56;;;;;;;7.47;4.20;;;;;;;;;;5033036;28;20030;-70
2023/03/08 13:45:22;;;;;;;6.55;4.03;;;;;;;;;;5032307;28;20144;-69
2023/03/08 13:47:48;;;;;;;8.23;4.20;;;;;;;;;;5032918;28;20040;-69
2023/03/08 13:50:26;;;;;;;8.35;4.40;;;;;;;;;;5029446;28;20033;-70
2023/03/08 13:52:52;;;;;;;7.55;4.38;;;;;;;;;;5031482;28;20141;-71
2023/03/08 13:55:30;;;;;;;7.22;3.97;;;;;;;;;;5014299;28;20533;-72
2023/03/08 13:57:55;;;;;;;7.78;4.88;;;;;;;;;;5032799;28;20454;-72
2023/03/08 14:00:29;;;;;;;8.48;5.03;;;;;;;;;;5032004;28;20052;-72
2023/03/08 14:02:56;;;;;;;7.95;4.90;;;;;;;;;;5032521;28;20039;-72
2023/03/08 14:05:33;;;;;;;7.88;5.07;;;;;;;;;;5030295;28;20048;-72
2023/03/08 14:08:04;;;;;;;9.13;5.10;;;;;;;;;;5032709;28;20469;-72
2023/03/08 14:10:40;;;;;;;8.55;5.18;;;;;;;;;;5014342;28;20033;-71
2023/03/08 14:13:14;;;;;;;8.60;5.15;;;;;;;;;;5031944;28;20098;-68
2023/03/08 14:15:51;;;;;;;8.23;4.97;;;;;;;;;;5032231;28;20103;-72
2023/03/08 14:18:22;;;;;;;7.82;4.70;;;;;;;;;;5031689;28;20075;-71
2023/03/08 14:21:00;;;;;;;8.38;4.97;;;;;;;;;;5031587;28;20128;-72
2023/03/08 14:23:26;;;;;;;9.13;5.68;;;;;;;;;;5031267;28;20783;-71
2023/03/08 14:25:56;;;;;;;9.93;5.25;;;;;;;;;;5032446;28;20060;-71
2023/03/08 14:28:39;;;;;;;9.23;5.25;;;;;;;;;;5031164;28;20486;-72
2023/03/08 14:31:24;;;;;;;9.63;5.32;;;;;;;;;;5014278;28;20037;-69
2023/03/08 14:34:00;;;;;;;10.30;5.40;;;;;;;;;;5013048;28;20359;-71
2023/03/08 14:36:31;;;;;;;9.43;5.35;;;;;;;;;;5031352;28;20060;-71
2023/03/08 14:39:01;;;;;;;10.57;6.03;;;;;;;;;;5032144;28;20102;-71
2023/03/08 14:41:34;;;;;;;8.60;5.45;;;;;;;;;;5031216;28;20048;-71
2023/03/08 14:44:01;;;;;;;7.90;5.18;;;;;;;;;;5031843;28;20085;-71
2023/03/08 14:46:27;;;;;;;9.32;5.78;;;;;;;;;;5030945;28;20509;-71